In Rescue
 
Open Full Screen Window  High Contrast Mode
July 25, 2021 8:21 AM CDT
Weather Information
Wind Direction
  ---
Wind Speed
  00 kt (0 mph)
Wind Gust
  00 kt (0 mph)
Altimeter
30.06 in
Visibility
7 SM
Temperature
20° C
68° F
Dewpoint
18° C
64° F
Humidity
88%
1hr Rain Fall
00.00 in.
24hr Rain Fall
00.00 in.
Sky Condition
Clear
VFR

METAR KDVP 251321Z AUTO 00000KT 7SM CLR 20/18 A3006 RMK AO2 T02020178

FAA Disclaimer: The data displayed is for advisory purposes only and is not to be used for flight planning or operations.